createdAt,value
2018-12-12T00:01:57.936Z,0
2018-12-12T00:05:03.880Z,0
2018-12-12T00:08:10.045Z,0
2018-12-12T00:11:16.030Z,0
2018-12-12T00:14:21.990Z,0
2018-12-12T00:17:27.931Z,0
2018-12-12T00:20:33.807Z,0
2018-12-12T00:23:39.758Z,0
2018-12-12T00:26:45.658Z,0
2018-12-12T00:29:51.587Z,0
2018-12-12T00:32:57.535Z,0
2018-12-12T00:36:03.480Z,0
2018-12-12T00:39:09.364Z,0
2018-12-12T00:42:15.307Z,0
2018-12-12T00:45:22.582Z,0
2018-12-12T00:48:28.650Z,0
2018-12-12T00:51:34.535Z,0
2018-12-12T00:54:40.568Z,0
2018-12-12T00:57:46.636Z,0
2018-12-12T01:00:52.629Z,0
2018-12-12T01:03:58.549Z,0
2018-12-12T01:07:04.442Z,0
2018-12-12T01:10:10.366Z,0
2018-12-12T01:13:16.352Z,0
2018-12-12T01:16:22.400Z,0
2018-12-12T01:19:28.271Z,0
2018-12-12T01:22:37.073Z,0
2018-12-12T01:25:43.031Z,0
2018-12-12T01:28:49.010Z,0
2018-12-12T01:31:54.949Z,0
2018-12-12T01:35:00.908Z,0
2018-12-12T01:38:06.796Z,0
2018-12-12T01:41:12.727Z,0
2018-12-12T01:44:18.684Z,0
2018-12-12T01:47:24.646Z,0
2018-12-12T01:50:31.128Z,0
2018-12-12T01:53:36.999Z,0
2018-12-12T01:56:42.935Z,0
2018-12-12T01:59:49.017Z,0
2018-12-12T02:02:54.877Z,0
2018-12-12T02:06:00.806Z,0
2018-12-12T02:09:06.765Z,0
2018-12-12T02:12:12.648Z,0
2018-12-12T02:15:18.626Z,0
2018-12-12T02:18:24.540Z,0
2018-12-12T02:21:30.498Z,0
2018-12-12T02:24:36.372Z,0
2018-12-12T02:27:42.327Z,0
2018-12-12T02:30:48.218Z,0
2018-12-12T02:33:54.132Z,0
2018-12-12T02:37:02.180Z,0
2018-12-12T02:40:08.201Z,0
2018-12-12T02:43:14.167Z,0
2018-12-12T02:46:20.230Z,0
2018-12-12T02:49:26.234Z,0
2018-12-12T02:52:32.246Z,0
2018-12-12T02:55:38.309Z,0
2018-12-12T02:58:44.187Z,0
2018-12-12T03:01:50.234Z,0
2018-12-12T03:04:56.183Z,0
2018-12-12T03:08:02.060Z,0
2018-12-12T03:11:08.000Z,0
2018-12-12T03:14:13.940Z,0
2018-12-12T03:17:19.921Z,0
2018-12-12T03:20:25.878Z,0
2018-12-12T03:23:31.837Z,0
2018-12-12T03:26:37.902Z,0
2018-12-12T03:29:43.856Z,0
2018-12-12T03:32:49.980Z,0
2018-12-12T03:35:55.979Z,0
2018-12-12T03:39:01.851Z,0
2018-12-12T03:42:07.852Z,0
2018-12-12T03:45:13.753Z,95.8
2018-12-12T03:48:19.723Z,117.4
2018-12-12T03:51:25.673Z,123.1
2018-12-12T03:54:31.734Z,126.7
2018-12-12T03:57:37.792Z,128.2
2018-12-12T04:00:43.669Z,128.9
2018-12-12T04:03:52.145Z,129.6
2018-12-12T04:06:58.016Z,129.6
2018-12-12T04:10:06.966Z,128.9
2018-12-12T04:13:12.967Z,130.3
2018-12-12T04:16:18.980Z,131
2018-12-12T04:19:24.935Z,130.3
2018-12-12T04:22:30.997Z,131
2018-12-12T04:25:37.225Z,130.3
2018-12-12T04:28:43.442Z,130.3
2018-12-12T04:31:49.488Z,131
2018-12-12T04:34:55.410Z,130.3
2018-12-12T04:38:01.511Z,130.3
2018-12-12T04:41:07.385Z,130.3
2018-12-12T04:44:13.428Z,130.3
2018-12-12T04:47:19.316Z,130.3
2018-12-12T04:50:25.352Z,130.3
2018-12-12T04:53:31.410Z,130.3
2018-12-12T04:56:37.287Z,130.3
2018-12-12T04:59:43.224Z,130.3
2018-12-12T05:02:49.140Z,130.3
2018-12-12T05:05:55.172Z,131.8
2018-12-12T05:09:01.216Z,131.8
2018-12-12T05:12:07.267Z,131.8
2018-12-12T05:15:13.231Z,131.8
2018-12-12T05:18:19.186Z,131.8
2018-12-12T05:21:25.059Z,131.8
2018-12-12T05:24:31.014Z,131.8
2018-12-12T05:27:37.067Z,131.8
2018-12-12T05:30:42.984Z,131.8
2018-12-12T05:33:48.880Z,131.8
2018-12-12T05:36:54.839Z,131.8
2018-12-12T05:40:00.714Z,131.8
2018-12-12T05:43:06.653Z,131.8
2018-12-12T05:46:12.530Z,131.8
2018-12-12T05:49:18.578Z,131
2018-12-12T05:52:24.459Z,123.1
2018-12-12T05:55:31.826Z,126
2018-12-12T05:58:37.784Z,131.8
2018-12-12T06:01:43.751Z,131.8
2018-12-12T06:04:49.783Z,129.6
2018-12-12T06:07:55.776Z,132.5
2018-12-12T06:11:01.879Z,132.5
2018-12-12T06:14:07.788Z,131.8
2018-12-12T06:17:13.826Z,131.8
2018-12-12T06:20:19.759Z,131
2018-12-12T06:23:25.645Z,130.3
2018-12-12T06:26:37.979Z,130.3
2018-12-12T06:29:44.154Z,136.8
2018-12-12T06:32:50.066Z,135.4
2018-12-12T06:35:54.396Z,138.2
2018-12-12T06:39:00.375Z,133.9
2018-12-12T06:42:07.544Z,139
2018-12-12T06:45:13.527Z,139.7
2018-12-12T06:48:19.533Z,139
2018-12-12T06:51:27.708Z,138.2
2018-12-12T06:54:33.861Z,138.2
2018-12-12T06:57:39.817Z,138.2
2018-12-12T07:00:45.999Z,139
2018-12-12T07:03:51.855Z,139
2018-12-12T07:06:59.868Z,141.8
2018-12-12T07:10:05.684Z,139
2018-12-12T07:13:14.339Z,132.5
2018-12-12T07:16:20.591Z,135.4
2018-12-12T07:19:26.501Z,142.6
2018-12-12T07:22:32.520Z,141.8
2018-12-12T07:25:39.342Z,141.1
2018-12-12T07:28:46.599Z,136.1
2018-12-12T07:31:52.480Z,140.4
2018-12-12T07:34:58.817Z,140.4
2018-12-12T07:38:04.766Z,139
2018-12-12T07:41:10.744Z,142.6
2018-12-12T07:44:16.736Z,142.6
2018-12-12T07:47:22.659Z,142.6
2018-12-12T07:50:28.785Z,136.8
2018-12-12T07:53:34.746Z,138.2
2018-12-12T07:56:40.733Z,144.7
2018-12-12T07:59:47.055Z,144
2018-12-12T08:02:53.215Z,142.6
2018-12-12T08:06:00.341Z,144.7
2018-12-12T08:09:06.414Z,144.7
2018-12-12T08:12:12.889Z,144
2018-12-12T08:15:18.845Z,141.8
2018-12-12T08:18:24.909Z,143.3
2018-12-12T08:21:31.179Z,144
2018-12-12T08:24:37.332Z,144.7
2018-12-12T08:27:43.454Z,144
2018-12-12T08:30:49.334Z,141.1
2018-12-12T08:33:55.403Z,141.1
2018-12-12T08:37:01.326Z,139.7
2018-12-12T08:40:07.278Z,138.2
2018-12-12T08:43:13.542Z,136.8
2018-12-12T08:46:19.553Z,128.9
2018-12-12T08:49:26.795Z,135.4
2018-12-12T08:52:32.864Z,139.7
2018-12-12T08:55:39.819Z,141.1
2018-12-12T08:58:45.908Z,141.1
2018-12-12T09:01:52.154Z,141.8
2018-12-12T09:04:59.051Z,139.7
2018-12-12T09:08:07.561Z,133.2
2018-12-12T09:11:13.776Z,142.6
2018-12-12T09:14:19.791Z,145.4
2018-12-12T09:17:25.698Z,144.7
2018-12-12T09:20:31.580Z,146.9
2018-12-12T09:23:37.833Z,143.3
2018-12-12T09:26:43.830Z,144
2018-12-12T09:29:50.764Z,141.1
2018-12-12T09:32:56.866Z,142.6
2018-12-12T09:36:02.930Z,146.2
2018-12-12T09:39:10.018Z,146.9
2018-12-12T09:42:16.168Z,147.6
2018-12-12T09:45:24.804Z,142.6
2018-12-12T09:48:30.877Z,144
2018-12-12T09:51:36.845Z,145.4
2018-12-12T09:54:43.812Z,144
2018-12-12T09:57:50.768Z,150.5
2018-12-12T10:00:57.981Z,146.9
2018-12-12T10:04:05.113Z,146.2
2018-12-12T10:07:11.133Z,148.3
2018-12-12T10:10:17.193Z,146.2
2018-12-12T10:13:23.072Z,140.4
2018-12-12T10:16:29.194Z,146.2
2018-12-12T10:19:35.175Z,145.4
2018-12-12T10:22:41.337Z,146.9
2018-12-12T10:25:48.422Z,144.7
2018-12-12T10:28:54.422Z,146.9
2018-12-12T10:32:00.534Z,144
2018-12-12T10:35:06.512Z,146.9
2018-12-12T10:38:12.466Z,155.5
2018-12-12T10:41:18.530Z,157
2018-12-12T10:44:26.658Z,150.5
2018-12-12T10:47:32.696Z,155.5
2018-12-12T10:50:38.672Z,150.5
2018-12-12T10:53:44.704Z,157
2018-12-12T10:56:51.831Z,147.6
2018-12-12T10:59:57.823Z,148.3
2018-12-12T11:03:04.036Z,147.6
2018-12-12T11:06:10.077Z,148.3
2018-12-12T11:09:16.155Z,146.2
2018-12-12T11:12:22.112Z,146.2
2018-12-12T11:15:28.096Z,144.7
2018-12-12T11:18:33.990Z,144.7
2018-12-12T11:21:40.178Z,147.6
2018-12-12T11:24:48.583Z,153.4
2018-12-12T11:27:57.498Z,154.1
2018-12-12T11:31:03.505Z,153.4
2018-12-12T11:34:09.447Z,149.8
2018-12-12T11:37:15.473Z,151.2
2018-12-12T11:40:21.384Z,152.6
2018-12-12T11:43:27.325Z,144.7
2018-12-12T11:46:34.318Z,145.4
2018-12-12T11:49:40.387Z,145.4
2018-12-12T11:52:46.440Z,143.3
2018-12-12T11:55:52.408Z,146.9
2018-12-12T11:58:58.285Z,153.4
2018-12-12T12:02:05.366Z,154.8
2018-12-12T12:05:11.637Z,154.1
2018-12-12T12:08:18.587Z,152.6
2018-12-12T12:11:24.720Z,147.6
2018-12-12T12:14:31.045Z,145.4
2018-12-12T12:17:38.081Z,145.4
2018-12-12T12:20:43.952Z,145.4
2018-12-12T12:23:52.597Z,144
2018-12-12T12:26:58.554Z,144.7
2018-12-12T12:30:04.435Z,144.7
2018-12-12T12:33:10.576Z,144
2018-12-12T12:36:16.542Z,142.6
2018-12-12T12:39:22.499Z,141.8
2018-12-12T12:42:28.513Z,140.4
2018-12-12T12:45:34.524Z,139
2018-12-12T12:48:40.738Z,139
2018-12-12T12:51:46.636Z,139
2018-12-12T12:54:52.605Z,139
2018-12-12T12:57:58.564Z,138.2
2018-12-12T13:01:04.633Z,139
2018-12-12T13:04:12.836Z,138.2
2018-12-12T13:07:19.870Z,138.2
2018-12-12T13:10:26.494Z,137.5
2018-12-12T13:13:33.328Z,137.5
2018-12-12T13:16:39.643Z,138.2
2018-12-12T13:19:45.762Z,138.2
2018-12-12T13:22:51.598Z,138.2
2018-12-12T13:25:57.914Z,138.2
2018-12-12T13:29:03.784Z,139
2018-12-12T13:32:09.946Z,139
2018-12-12T13:35:15.826Z,138.2
2018-12-12T13:38:21.870Z,138.2
2018-12-12T13:41:27.933Z,139
2018-12-12T13:44:34.014Z,139.7
2018-12-12T13:47:42.152Z,139
2018-12-12T13:50:49.089Z,138.2
2018-12-12T13:53:55.457Z,136.8
2018-12-12T13:57:02.384Z,137.5
2018-12-12T14:00:11.246Z,136.8
2018-12-12T14:03:17.216Z,136.8
2018-12-12T14:06:23.304Z,136.1
2018-12-12T14:09:29.339Z,137.5
2018-12-12T14:12:36.321Z,136.8
2018-12-12T14:15:43.414Z,136.1
2018-12-12T14:18:49.386Z,135.4
2018-12-12T14:21:55.431Z,136.1
2018-12-12T14:25:01.310Z,136.1
2018-12-12T14:28:07.571Z,136.8
2018-12-12T14:31:13.630Z,136.1
2018-12-12T14:34:19.590Z,136.1
2018-12-12T14:37:25.654Z,136.1
2018-12-12T14:40:31.728Z,136.1
2018-12-12T14:43:37.644Z,135.4
2018-12-12T14:46:43.721Z,135.4
2018-12-12T14:49:49.917Z,136.1
2018-12-12T14:52:55.864Z,135.4
2018-12-12T14:56:01.744Z,136.1
2018-12-12T14:59:07.775Z,134.6
2018-12-12T15:02:13.646Z,136.1
2018-12-12T15:05:20.973Z,136.1
2018-12-12T15:08:26.986Z,136.1
2018-12-12T15:11:32.946Z,134.6
2018-12-12T15:14:39.505Z,136.1
2018-12-12T15:17:45.584Z,133.9
2018-12-12T15:20:53.072Z,133.9
2018-12-12T15:23:59.022Z,133.2
2018-12-12T15:27:05.047Z,133.9
2018-12-12T15:30:11.060Z,133.9
2018-12-12T15:33:17.008Z,132.5
2018-12-12T15:36:23.067Z,134.6
2018-12-12T15:39:29.030Z,134.6
2018-12-12T15:42:37.557Z,133.9
2018-12-12T15:45:43.687Z,133.9
2018-12-12T15:48:49.777Z,135.4
2018-12-12T15:51:55.660Z,133.9
2018-12-12T15:55:01.588Z,134.6
2018-12-12T15:58:07.585Z,134.6
2018-12-12T16:01:13.615Z,135.4
2018-12-12T16:04:19.581Z,136.1
2018-12-12T16:07:25.643Z,114.5
2018-12-12T16:10:31.634Z,135.4
2018-12-12T16:13:40.323Z,136.8
2018-12-12T16:16:46.260Z,136.1
2018-12-12T16:19:52.334Z,136.1
2018-12-12T16:22:58.211Z,136.1
2018-12-12T16:26:06.990Z,136.8
2018-12-12T16:29:12.981Z,136.8
2018-12-12T16:32:18.944Z,136.1
2018-12-12T16:35:24.902Z,136.8
2018-12-12T16:38:30.869Z,136.1
2018-12-12T16:41:36.931Z,136.1
2018-12-12T16:44:42.887Z,136.8
2018-12-12T16:47:48.839Z,137.5
2018-12-12T16:50:54.849Z,136.8
2018-12-12T16:54:00.869Z,136.1
2018-12-12T16:57:06.820Z,129.6
2018-12-12T17:00:12.894Z,129.6
2018-12-12T17:03:18.821Z,130.3
2018-12-12T17:06:24.806Z,130.3
2018-12-12T17:09:30.883Z,130.3
2018-12-12T17:12:36.818Z,130.3
2018-12-12T17:15:42.784Z,130.3
2018-12-12T17:18:48.999Z,131
2018-12-12T17:21:55.244Z,131
2018-12-12T17:25:01.367Z,131
2018-12-12T17:28:07.357Z,130.3
2018-12-12T17:31:13.370Z,131.8
2018-12-12T17:34:19.484Z,130.3
2018-12-12T17:37:26.555Z,131
2018-12-12T17:40:32.518Z,131
2018-12-12T17:43:38.607Z,131
2018-12-12T17:46:44.863Z,130.3
2018-12-12T17:49:50.895Z,131
2018-12-12T17:52:56.856Z,131
2018-12-12T17:56:03.248Z,131.8
2018-12-12T17:59:09.390Z,131
2018-12-12T18:02:18.280Z,131.8
2018-12-12T18:05:24.491Z,131
2018-12-12T18:08:30.862Z,131
2018-12-12T18:11:37.019Z,131.8
2018-12-12T18:14:43.580Z,131.8
2018-12-12T18:17:50.069Z,131.8
2018-12-12T18:20:56.572Z,131.8
2018-12-12T18:24:03.039Z,131.8
2018-12-12T18:27:09.781Z,131.8
2018-12-12T18:30:16.443Z,131.8
2018-12-12T18:33:22.780Z,131.8
2018-12-12T18:36:29.181Z,132.5
2018-12-12T18:39:35.075Z,131.8
2018-12-12T18:42:43.611Z,131
2018-12-12T18:45:49.639Z,131
2018-12-12T18:48:55.600Z,131
2018-12-12T18:52:01.466Z,131
2018-12-12T18:55:07.617Z,131
2018-12-12T18:58:13.483Z,131.8
2018-12-12T19:01:19.440Z,131
2018-12-12T19:04:25.399Z,131
2018-12-12T19:07:31.541Z,131
2018-12-12T19:10:37.511Z,131
2018-12-12T19:13:43.563Z,131
2018-12-12T19:16:49.742Z,131
2018-12-12T19:19:55.685Z,131
2018-12-12T19:23:01.663Z,131
2018-12-12T19:26:07.549Z,131
2018-12-12T19:29:13.486Z,131.8
2018-12-12T19:32:19.540Z,131
2018-12-12T19:35:25.569Z,131
2018-12-12T19:38:31.564Z,131
2018-12-12T19:41:37.509Z,131
2018-12-12T19:44:43.475Z,131.8
2018-12-12T19:47:49.430Z,131.8
2018-12-12T19:50:55.494Z,131.8
2018-12-12T19:54:01.633Z,1.9
2018-12-12T19:57:07.631Z,1.9
2018-12-12T20:00:13.582Z,1.9
2018-12-12T20:03:19.592Z,1.9
2018-12-12T20:06:25.630Z,1.9
2018-12-12T20:09:31.511Z,1.9
2018-12-12T20:12:37.418Z,1.9
2018-12-12T20:15:43.481Z,1.9
2018-12-12T20:18:49.419Z,1.9
2018-12-12T20:21:56.508Z,1.9
2018-12-12T20:25:02.405Z,1.9
2018-12-12T20:28:08.373Z,1.9
2018-12-12T20:31:14.423Z,1.9
2018-12-12T20:34:20.434Z,1.9
2018-12-12T20:37:26.435Z,1.9
2018-12-12T20:40:32.401Z,1.9
2018-12-12T20:43:38.342Z,1.9
2018-12-12T20:46:44.402Z,1.9
2018-12-12T20:49:50.465Z,1.9
2018-12-12T20:52:56.435Z,1.9
2018-12-12T20:56:02.496Z,1.9
2018-12-12T20:59:08.533Z,1.9
2018-12-12T21:02:14.528Z,1.9
2018-12-12T21:05:20.488Z,1.9
2018-12-12T21:08:26.435Z,1.9
2018-12-12T21:11:32.397Z,1.9
2018-12-12T21:14:38.451Z,1.9
2018-12-12T21:17:44.409Z,1.9
2018-12-12T21:20:50.368Z,1.9
2018-12-12T21:23:56.346Z,1.9
2018-12-12T21:27:02.296Z,0.5
2018-12-12T21:30:08.256Z,0
2018-12-12T21:33:20.895Z,0
2018-12-12T21:36:26.768Z,0
2018-12-12T21:39:32.676Z,0
2018-12-12T21:42:38.743Z,0
2018-12-12T21:45:44.701Z,0
2018-12-12T21:48:50.656Z,0
2018-12-12T21:51:56.534Z,0
2018-12-12T21:55:02.473Z,0
2018-12-12T21:58:08.349Z,0
2018-12-12T22:01:14.394Z,0
2018-12-12T22:04:20.452Z,0
2018-12-12T22:07:26.364Z,0
2018-12-12T22:10:32.413Z,0
2018-12-12T22:13:38.344Z,0
2018-12-12T22:16:44.290Z,0
2018-12-12T22:19:50.265Z,0
2018-12-12T22:22:56.213Z,0
2018-12-12T22:26:03.558Z,0
2018-12-12T22:29:09.428Z,0
2018-12-12T22:32:15.432Z,0
2018-12-12T22:35:21.483Z,0
2018-12-12T22:38:27.507Z,0
2018-12-12T22:41:33.409Z,0
2018-12-12T22:44:39.471Z,0
2018-12-12T22:47:45.537Z,0
2018-12-12T22:50:51.443Z,0
2018-12-12T22:53:57.341Z,0
2018-12-12T22:57:03.304Z,0
2018-12-12T23:00:09.477Z,0
2018-12-12T23:03:15.338Z,0
2018-12-12T23:06:23.534Z,0
2018-12-12T23:09:29.408Z,0
2018-12-12T23:12:38.127Z,0
2018-12-12T23:15:44.088Z,0
2018-12-12T23:18:49.948Z,0
2018-12-12T23:21:55.994Z,0
2018-12-12T23:25:01.956Z,0
2018-12-12T23:28:07.918Z,0
2018-12-12T23:31:13.884Z,0
2018-12-12T23:34:19.805Z,0
2018-12-12T23:37:25.789Z,0
2018-12-12T23:40:31.936Z,0
2018-12-12T23:43:37.874Z,0
2018-12-12T23:46:43.957Z,0
2018-12-12T23:49:49.832Z,0
2018-12-12T23:52:55.796Z,0
2018-12-12T23:56:01.673Z,0
2018-12-12T23:59:07.609Z,0
